createdAt,value
2022-10-12T00:02:33.820Z,100.00
2022-10-12T00:12:36.098Z,100.00
2022-10-12T00:22:38.460Z,100.00
2022-10-12T00:32:40.826Z,100.00
2022-10-12T00:42:43.427Z,100.00
2022-10-12T00:52:56.217Z,100.00
2022-10-12T01:02:59.110Z,100.00
2022-10-12T01:13:02.584Z,100.00
2022-10-12T01:23:32.108Z,100.00
2022-10-12T01:33:45.649Z,100.00
2022-10-12T01:43:50.396Z,100.00
2022-10-12T01:54:06.524Z,100.00
2022-10-12T02:04:35.830Z,100.00
2022-10-12T02:14:46.577Z,100.00
2022-10-12T02:24:52.179Z,100.00
2022-10-12T02:34:57.443Z,100.00
2022-10-12T02:45:03.459Z,100.00
2022-10-12T02:55:06.559Z,100.00
2022-10-12T03:05:08.937Z,100.00
2022-10-12T03:15:11.180Z,100.00
2022-10-12T03:25:13.432Z,100.00
2022-10-12T03:35:15.860Z,100.00
2022-10-12T03:45:18.235Z,100.00
2022-10-12T03:55:20.622Z,100.00
2022-10-12T04:05:23.553Z,100.00
2022-10-12T04:15:25.965Z,100.00
2022-10-12T04:25:30.177Z,100.00
2022-10-12T04:35:32.725Z,100.00
2022-10-12T04:45:35.443Z,100.00
2022-10-12T04:55:38.319Z,100.00
2022-10-12T05:05:40.592Z,100.00
2022-10-12T05:15:44.065Z,100.00
2022-10-12T05:25:46.316Z,100.00
2022-10-12T05:35:53.332Z,100.00
2022-10-12T05:45:58.812Z,100.00
2022-10-12T05:56:01.956Z,100.00
2022-10-12T06:06:06.664Z,100.00
2022-10-12T06:16:09.395Z,100.00
2022-10-12T06:26:12.101Z,100.00
2022-10-12T06:36:14.568Z,100.00
2022-10-12T06:46:17.118Z,100.00
2022-10-12T06:56:19.585Z,100.00
2022-10-12T07:06:22.130Z,100.00
2022-10-12T07:16:24.911Z,100.00
2022-10-12T07:26:27.884Z,100.00
2022-10-12T07:36:47.303Z,100.00
2022-10-12T07:46:50.989Z,100.00
2022-10-12T07:56:53.867Z,100.00
2022-10-12T08:06:58.259Z,100.00
2022-10-12T08:17:00.642Z,100.00
2022-10-12T08:27:03.215Z,100.00
2022-10-12T08:37:05.872Z,100.00
2022-10-12T08:47:18.188Z,100.00
2022-10-12T08:57:21.309Z,100.00
2022-10-12T09:07:28.949Z,100.00
2022-10-12T09:17:46.418Z,100.00
2022-10-12T09:27:53.855Z,100.00
2022-10-12T09:37:58.188Z,99.42
2022-10-12T09:48:19.759Z,98.75
2022-10-12T09:58:24.774Z,94.76
2022-10-12T10:08:29.282Z,93.34
2022-10-12T10:18:45.291Z,88.73
2022-10-12T10:28:53.410Z,90.50
2022-10-12T10:39:05.264Z,90.00
2022-10-12T10:49:36.953Z,89.75
2022-10-12T10:59:53.890Z,87.93
2022-10-12T11:10:00.082Z,87.79
2022-10-12T11:20:30.163Z,85.17
2022-10-12T11:30:44.453Z,84.85
2022-10-12T11:51:20.265Z,84.99
2022-10-12T12:01:38.664Z,84.81
2022-10-12T12:11:41.360Z,81.13
2022-10-12T12:22:12.581Z,80.96
2022-10-12T12:32:17.161Z,76.40
2022-10-12T12:42:27.920Z,75.97
2022-10-12T12:52:41.327Z,81.35
2022-10-12T13:03:09.284Z,77.59
2022-10-12T13:13:19.355Z,77.48
2022-10-12T13:23:26.907Z,79.70
2022-10-12T13:33:39.763Z,81.11
2022-10-12T13:43:49.048Z,82.10
2022-10-12T13:53:51.591Z,84.46
2022-10-12T14:04:04.489Z,85.12
2022-10-12T14:14:18.568Z,85.86
2022-10-12T14:24:22.016Z,85.81
2022-10-12T14:34:27.231Z,85.83
2022-10-12T14:44:30.156Z,86.36
2022-10-12T14:54:32.798Z,87.49
2022-10-12T15:04:36.044Z,87.82
2022-10-12T15:14:38.955Z,87.90
2022-10-12T15:24:42.154Z,88.13
2022-10-12T15:34:45.157Z,91.20
2022-10-12T15:44:48.183Z,94.16
2022-10-12T15:54:51.107Z,96.19
2022-10-12T16:04:53.760Z,98.31
2022-10-12T16:14:56.863Z,99.18
2022-10-12T16:24:59.457Z,100.00
2022-10-12T16:35:02.085Z,100.00
2022-10-12T16:45:05.398Z,100.00
2022-10-12T16:55:08.247Z,100.00
2022-10-12T17:05:11.243Z,100.00
2022-10-12T17:15:13.870Z,100.00
2022-10-12T17:25:16.860Z,100.00
2022-10-12T17:35:19.228Z,100.00
2022-10-12T17:45:21.990Z,100.00
2022-10-12T17:55:43.883Z,100.00
2022-10-12T18:05:47.908Z,100.00
2022-10-12T18:15:50.470Z,100.00
2022-10-12T18:25:52.900Z,100.00
2022-10-12T18:35:56.158Z,100.00
2022-10-12T18:45:58.652Z,100.00
2022-10-12T18:56:05.361Z,100.00
2022-10-12T19:06:15.272Z,100.00
2022-10-12T19:16:18.367Z,100.00
2022-10-12T19:26:24.452Z,100.00
2022-10-12T19:36:28.959Z,100.00
2022-10-12T19:46:31.473Z,100.00
2022-10-12T19:56:34.551Z,100.00
2022-10-12T20:06:38.784Z,100.00
2022-10-12T20:16:41.304Z,100.00
2022-10-12T20:26:44.099Z,100.00
2022-10-12T20:36:46.347Z,100.00
2022-10-12T20:46:50.436Z,100.00
2022-10-12T20:56:52.929Z,100.00
2022-10-12T21:06:55.788Z,100.00
2022-10-12T21:16:58.194Z,100.00
2022-10-12T21:27:00.634Z,100.00
2022-10-12T21:37:02.936Z,100.00
2022-10-12T21:47:05.271Z,100.00
2022-10-12T21:57:07.607Z,100.00
2022-10-12T22:07:10.032Z,100.00
2022-10-12T22:17:12.387Z,100.00
2022-10-12T22:27:14.642Z,100.00
2022-10-12T22:37:16.839Z,100.00
2022-10-12T22:47:19.701Z,100.00
2022-10-12T22:57:22.153Z,100.00
2022-10-12T23:07:24.547Z,100.00
2022-10-12T23:17:26.904Z,100.00
2022-10-12T23:27:29.432Z,100.00
2022-10-12T23:37:31.774Z,100.00
2022-10-12T23:47:34.032Z,100.00
2022-10-12T23:57:46.596Z,100.00
